sensor_id;sensor_type;location;lat;lon;timestamp;P1;durP1;ratioP1;P2;durP2;ratioP2
6135;SDS011;24008;42.664;23.372;2023-07-08T00:00:39;25.10;;;18.83;;
6135;SDS011;24008;42.664;23.372;2023-07-08T00:03:07;23.60;;;19.27;;
6135;SDS011;24008;42.664;23.372;2023-07-08T00:05:35;27.57;;;20.20;;
6135;SDS011;24008;42.664;23.372;2023-07-08T00:08:02;27.07;;;22.00;;
6135;SDS011;24008;42.664;23.372;2023-07-08T00:10:29;24.83;;;20.47;;
6135;SDS011;24008;42.664;23.372;2023-07-08T00:12:56;27.37;;;22.30;;
6135;SDS011;24008;42.664;23.372;2023-07-08T00:15:25;27.97;;;22.27;;
6135;SDS011;24008;42.664;23.372;2023-07-08T00:17:53;27.03;;;21.90;;
6135;SDS011;24008;42.664;23.372;2023-07-08T00:20:23;25.83;;;23.10;;
6135;SDS011;24008;42.664;23.372;2023-07-08T00:22:57;26.03;;;21.67;;
6135;SDS011;24008;42.664;23.372;2023-07-08T00:25:26;27.00;;;22.37;;
6135;SDS011;24008;42.664;23.372;2023-07-08T00:27:53;26.20;;;21.90;;
6135;SDS011;24008;42.664;23.372;2023-07-08T00:30:21;25.23;;;21.47;;
6135;SDS011;24008;42.664;23.372;2023-07-08T00:32:49;24.90;;;21.67;;
6135;SDS011;24008;42.664;23.372;2023-07-08T00:35:19;29.17;;;21.63;;
6135;SDS011;24008;42.664;23.372;2023-07-08T00:37:54;29.07;;;22.40;;
6135;SDS011;24008;42.664;23.372;2023-07-08T00:40:26;26.47;;;22.43;;
6135;SDS011;24008;42.664;23.372;2023-07-08T00:42:54;24.50;;;21.80;;
6135;SDS011;24008;42.664;23.372;2023-07-08T00:45:32;26.70;;;22.57;;
6135;SDS011;24008;42.664;23.372;2023-07-08T00:48:07;25.67;;;22.87;;
6135;SDS011;24008;42.664;23.372;2023-07-08T00:50:39;25.10;;;22.27;;
6135;SDS011;24008;42.664;23.372;2023-07-08T00:53:23;27.40;;;22.77;;
6135;SDS011;24008;42.664;23.372;2023-07-08T00:55:51;26.90;;;21.97;;
6135;SDS011;24008;42.664;23.372;2023-07-08T00:58:20;27.40;;;22.83;;
6135;SDS011;24008;42.664;23.372;2023-07-08T01:00:50;26.67;;;22.60;;
6135;SDS011;24008;42.664;23.372;2023-07-08T01:03:21;24.80;;;22.07;;
6135;SDS011;24008;42.664;23.372;2023-07-08T01:05:50;25.30;;;22.33;;
6135;SDS011;24008;42.664;23.372;2023-07-08T01:08:18;25.40;;;22.10;;
6135;SDS011;24008;42.664;23.372;2023-07-08T01:10:53;26.53;;;22.93;;
6135;SDS011;24008;42.664;23.372;2023-07-08T01:13:26;25.23;;;22.27;;
6135;SDS011;24008;42.664;23.372;2023-07-08T01:15:54;26.10;;;21.57;;
6135;SDS011;24008;42.664;23.372;2023-07-08T01:18:21;24.83;;;22.13;;
6135;SDS011;24008;42.664;23.372;2023-07-08T01:20:51;26.20;;;22.20;;
6135;SDS011;24008;42.664;23.372;2023-07-08T01:23:21;25.57;;;22.77;;
6135;SDS011;24008;42.664;23.372;2023-07-08T01:25:49;24.43;;;21.63;;
6135;SDS011;24008;42.664;23.372;2023-07-08T01:28:16;23.67;;;21.13;;
6135;SDS011;24008;42.664;23.372;2023-07-08T01:30:43;24.83;;;21.50;;
6135;SDS011;24008;42.664;23.372;2023-07-08T01:33:13;27.03;;;21.93;;
6135;SDS011;24008;42.664;23.372;2023-07-08T01:35:45;26.13;;;22.10;;
6135;SDS011;24008;42.664;23.372;2023-07-08T01:38:14;25.60;;;21.50;;
6135;SDS011;24008;42.664;23.372;2023-07-08T01:40:51;22.90;;;20.40;;
6135;SDS011;24008;42.664;23.372;2023-07-08T01:43:19;23.10;;;19.97;;
6135;SDS011;24008;42.664;23.372;2023-07-08T01:45:46;25.43;;;21.27;;
6135;SDS011;24008;42.664;23.372;2023-07-08T01:48:16;24.10;;;21.50;;
6135;SDS011;24008;42.664;23.372;2023-07-08T01:50:46;26.40;;;21.27;;
6135;SDS011;24008;42.664;23.372;2023-07-08T01:53:18;27.87;;;21.00;;
6135;SDS011;24008;42.664;23.372;2023-07-08T01:55:47;25.37;;;21.27;;
6135;SDS011;24008;42.664;23.372;2023-07-08T01:58:15;23.67;;;20.27;;
6135;SDS011;24008;42.664;23.372;2023-07-08T02:00:42;25.30;;;20.60;;
6135;SDS011;24008;42.664;23.372;2023-07-08T02:03:09;27.83;;;21.17;;
6135;SDS011;24008;42.664;23.372;2023-07-08T02:05:36;28.90;;;21.30;;
6135;SDS011;24008;42.664;23.372;2023-07-08T02:08:03;30.07;;;21.77;;
6135;SDS011;24008;42.664;23.372;2023-07-08T02:10:30;24.80;;;21.20;;
6135;SDS011;24008;42.664;23.372;2023-07-08T02:12:57;28.47;;;21.27;;
6135;SDS011;24008;42.664;23.372;2023-07-08T02:15:26;23.57;;;20.80;;
6135;SDS011;24008;42.664;23.372;2023-07-08T02:17:53;24.07;;;19.57;;
6135;SDS011;24008;42.664;23.372;2023-07-08T02:20:20;26.60;;;20.60;;
6135;SDS011;24008;42.664;23.372;2023-07-08T02:22:47;26.00;;;20.47;;
6135;SDS011;24008;42.664;23.372;2023-07-08T02:25:14;23.47;;;20.07;;
6135;SDS011;24008;42.664;23.372;2023-07-08T02:27:40;22.00;;;19.63;;
6135;SDS011;24008;42.664;23.372;2023-07-08T02:30:08;21.47;;;19.17;;
6135;SDS011;24008;42.664;23.372;2023-07-08T02:32:36;23.03;;;19.90;;
6135;SDS011;24008;42.664;23.372;2023-07-08T02:35:04;24.23;;;18.90;;
6135;SDS011;24008;42.664;23.372;2023-07-08T02:37:31;22.20;;;19.13;;
6135;SDS011;24008;42.664;23.372;2023-07-08T02:39:58;21.60;;;19.10;;
6135;SDS011;24008;42.664;23.372;2023-07-08T02:42:25;23.67;;;19.30;;
6135;SDS011;24008;42.664;23.372;2023-07-08T02:44:53;24.77;;;19.87;;
6135;SDS011;24008;42.664;23.372;2023-07-08T02:47:20;23.37;;;19.97;;
6135;SDS011;24008;42.664;23.372;2023-07-08T02:49:48;24.30;;;20.53;;
6135;SDS011;24008;42.664;23.372;2023-07-08T02:52:15;22.30;;;19.37;;
6135;SDS011;24008;42.664;23.372;2023-07-08T02:54:42;23.97;;;19.37;;
6135;SDS011;24008;42.664;23.372;2023-07-08T02:57:09;23.83;;;19.20;;
6135;SDS011;24008;42.664;23.372;2023-07-08T02:59:35;24.40;;;19.60;;
6135;SDS011;24008;42.664;23.372;2023-07-08T03:02:02;24.77;;;19.53;;
6135;SDS011;24008;42.664;23.372;2023-07-08T03:04:29;23.73;;;20.53;;
6135;SDS011;24008;42.664;23.372;2023-07-08T03:06:57;24.77;;;21.17;;
6135;SDS011;24008;42.664;23.372;2023-07-08T03:09:25;23.60;;;20.87;;
6135;SDS011;24008;42.664;23.372;2023-07-08T03:11:52;25.43;;;20.60;;
6135;SDS011;24008;42.664;23.372;2023-07-08T03:14:19;25.93;;;20.30;;
6135;SDS011;24008;42.664;23.372;2023-07-08T03:16:46;24.50;;;20.33;;
6135;SDS011;24008;42.664;23.372;2023-07-08T03:19:13;22.17;;;19.87;;
6135;SDS011;24008;42.664;23.372;2023-07-08T03:21:40;28.00;;;19.93;;
6135;SDS011;24008;42.664;23.372;2023-07-08T03:24:09;23.93;;;20.27;;
6135;SDS011;24008;42.664;23.372;2023-07-08T03:26:37;22.13;;;19.57;;
6135;SDS011;24008;42.664;23.372;2023-07-08T03:29:04;21.90;;;19.20;;
6135;SDS011;24008;42.664;23.372;2023-07-08T03:31:31;21.23;;;17.73;;
6135;SDS011;24008;42.664;23.372;2023-07-08T03:33:58;20.43;;;18.23;;
6135;SDS011;24008;42.664;23.372;2023-07-08T03:36:24;26.23;;;18.60;;
6135;SDS011;24008;42.664;23.372;2023-07-08T03:38:52;21.33;;;18.70;;
6135;SDS011;24008;42.664;23.372;2023-07-08T03:41:22;20.47;;;17.50;;
6135;SDS011;24008;42.664;23.372;2023-07-08T03:43:49;18.57;;;16.53;;
6135;SDS011;24008;42.664;23.372;2023-07-08T03:46:17;19.07;;;16.67;;
6135;SDS011;24008;42.664;23.372;2023-07-08T03:48:45;21.87;;;16.40;;
6135;SDS011;24008;42.664;23.372;2023-07-08T03:51:14;19.87;;;16.17;;
6135;SDS011;24008;42.664;23.372;2023-07-08T03:53:48;19.03;;;16.93;;
6135;SDS011;24008;42.664;23.372;2023-07-08T03:56:15;17.77;;;15.97;;
6135;SDS011;24008;42.664;23.372;2023-07-08T03:58:43;16.97;;;15.17;;
6135;SDS011;24008;42.664;23.372;2023-07-08T04:01:12;17.03;;;15.23;;
6135;SDS011;24008;42.664;23.372;2023-07-08T04:03:41;18.93;;;14.70;;
6135;SDS011;24008;42.664;23.372;2023-07-08T04:06:08;17.80;;;15.80;;
6135;SDS011;24008;42.664;23.372;2023-07-08T04:08:35;16.63;;;14.30;;
6135;SDS011;24008;42.664;23.372;2023-07-08T04:11:02;15.33;;;13.73;;
6135;SDS011;24008;42.664;23.372;2023-07-08T04:13:29;17.10;;;14.07;;
6135;SDS011;24008;42.664;23.372;2023-07-08T04:15:58;14.87;;;13.43;;
6135;SDS011;24008;42.664;23.372;2023-07-08T04:18:27;19.93;;;14.50;;
6135;SDS011;24008;42.664;23.372;2023-07-08T04:20:54;15.33;;;13.63;;
6135;SDS011;24008;42.664;23.372;2023-07-08T04:23:21;25.67;;;20.13;;
6135;SDS011;24008;42.664;23.372;2023-07-08T04:25:49;15.67;;;13.77;;
6135;SDS011;24008;42.664;23.372;2023-07-08T04:28:17;16.30;;;14.13;;
6135;SDS011;24008;42.664;23.372;2023-07-08T04:30:43;16.33;;;14.63;;
6135;SDS011;24008;42.664;23.372;2023-07-08T04:33:12;16.60;;;13.90;;
6135;SDS011;24008;42.664;23.372;2023-07-08T04:35:40;14.70;;;12.13;;
6135;SDS011;24008;42.664;23.372;2023-07-08T04:38:09;14.97;;;12.60;;
6135;SDS011;24008;42.664;23.372;2023-07-08T04:40:42;14.18;;;11.07;;
6135;SDS011;24008;42.664;23.372;2023-07-08T04:43:10;18.13;;;12.68;;
6135;SDS011;24008;42.664;23.372;2023-07-08T04:45:37;12.93;;;11.52;;
6135;SDS011;24008;42.664;23.372;2023-07-08T04:48:04;13.25;;;11.15;;
6135;SDS011;24008;42.664;23.372;2023-07-08T04:50:39;17.35;;;13.20;;
6135;SDS011;24008;42.664;23.372;2023-07-08T04:53:07;12.73;;;10.77;;
6135;SDS011;24008;42.664;23.372;2023-07-08T04:55:34;12.70;;;11.32;;
6135;SDS011;24008;42.664;23.372;2023-07-08T04:58:02;15.55;;;13.90;;
6135;SDS011;24008;42.664;23.372;2023-07-08T05:00:28;11.20;;;10.10;;
6135;SDS011;24008;42.664;23.372;2023-07-08T05:02:56;12.00;;;10.07;;
6135;SDS011;24008;42.664;23.372;2023-07-08T05:05:23;11.73;;;10.45;;
6135;SDS011;24008;42.664;23.372;2023-07-08T05:07:51;11.95;;;10.73;;
6135;SDS011;24008;42.664;23.372;2023-07-08T05:10:18;11.98;;;10.38;;
6135;SDS011;24008;42.664;23.372;2023-07-08T05:12:46;15.82;;;10.80;;
6135;SDS011;24008;42.664;23.372;2023-07-08T05:15:13;11.05;;;9.82;;
6135;SDS011;24008;42.664;23.372;2023-07-08T05:17:41;13.75;;;11.50;;
6135;SDS011;24008;42.664;23.372;2023-07-08T05:20:10;13.52;;;10.75;;
6135;SDS011;24008;42.664;23.372;2023-07-08T05:22:38;12.35;;;10.73;;
6135;SDS011;24008;42.664;23.372;2023-07-08T05:25:09;14.07;;;12.65;;
6135;SDS011;24008;42.664;23.372;2023-07-08T05:27:37;11.68;;;9.30;;
6135;SDS011;24008;42.664;23.372;2023-07-08T05:30:04;10.65;;;9.55;;
6135;SDS011;24008;42.664;23.372;2023-07-08T05:32:33;13.20;;;9.75;;
6135;SDS011;24008;42.664;23.372;2023-07-08T05:35:00;12.98;;;9.48;;
6135;SDS011;24008;42.664;23.372;2023-07-08T05:37:27;9.90;;;8.98;;
6135;SDS011;24008;42.664;23.372;2023-07-08T05:39:54;11.50;;;9.32;;
6135;SDS011;24008;42.664;23.372;2023-07-08T05:42:22;10.93;;;9.52;;
6135;SDS011;24008;42.664;23.372;2023-07-08T05:44:49;10.43;;;8.77;;
6135;SDS011;24008;42.664;23.372;2023-07-08T05:47:17;9.75;;;8.82;;
6135;SDS011;24008;42.664;23.372;2023-07-08T05:49:43;9.80;;;8.82;;
6135;SDS011;24008;42.664;23.372;2023-07-08T05:52:10;10.35;;;8.98;;
6135;SDS011;24008;42.664;23.372;2023-07-08T05:54:37;9.02;;;7.95;;
6135;SDS011;24008;42.664;23.372;2023-07-08T05:57:05;9.60;;;8.50;;
6135;SDS011;24008;42.664;23.372;2023-07-08T05:59:34;10.38;;;8.63;;
6135;SDS011;24008;42.664;23.372;2023-07-08T06:02:02;8.93;;;8.13;;
6135;SDS011;24008;42.664;23.372;2023-07-08T06:04:29;12.05;;;9.15;;
6135;SDS011;24008;42.664;23.372;2023-07-08T06:06:56;10.85;;;8.88;;
6135;SDS011;24008;42.664;23.372;2023-07-08T06:09:23;16.60;;;9.30;;
6135;SDS011;24008;42.664;23.372;2023-07-08T06:11:49;11.02;;;9.43;;
6135;SDS011;24008;42.664;23.372;2023-07-08T06:14:16;10.82;;;9.13;;
6135;SDS011;24008;42.664;23.372;2023-07-08T06:16:45;13.98;;;9.15;;
6135;SDS011;24008;42.664;23.372;2023-07-08T06:19:11;12.05;;;8.90;;
6135;SDS011;24008;42.664;23.372;2023-07-08T06:21:40;9.88;;;8.75;;
6135;SDS011;24008;42.664;23.372;2023-07-08T06:24:07;12.07;;;9.63;;
6135;SDS011;24008;42.664;23.372;2023-07-08T06:26:34;9.90;;;8.98;;
6135;SDS011;24008;42.664;23.372;2023-07-08T06:29:01;10.85;;;9.85;;
6135;SDS011;24008;42.664;23.372;2023-07-08T06:31:28;11.70;;;10.50;;
6135;SDS011;24008;42.664;23.372;2023-07-08T06:33:56;12.95;;;10.15;;
6135;SDS011;24008;42.664;23.372;2023-07-08T06:36:24;11.80;;;9.77;;
6135;SDS011;24008;42.664;23.372;2023-07-08T06:38:50;11.50;;;10.30;;
6135;SDS011;24008;42.664;23.372;2023-07-08T06:41:17;10.02;;;9.00;;
6135;SDS011;24008;42.664;23.372;2023-07-08T06:43:44;11.88;;;10.45;;
6135;SDS011;24008;42.664;23.372;2023-07-08T06:46:11;12.82;;;10.07;;
6135;SDS011;24008;42.664;23.372;2023-07-08T06:48:38;10.35;;;9.30;;
6135;SDS011;24008;42.664;23.372;2023-07-08T06:51:06;10.20;;;9.02;;
6135;SDS011;24008;42.664;23.372;2023-07-08T06:53:33;9.60;;;8.57;;
6135;SDS011;24008;42.664;23.372;2023-07-08T06:56:00;9.75;;;8.77;;
6135;SDS011;24008;42.664;23.372;2023-07-08T06:58:28;12.63;;;8.63;;
6135;SDS011;24008;42.664;23.372;2023-07-08T07:00:55;11.52;;;8.57;;
6135;SDS011;24008;42.664;23.372;2023-07-08T07:03:21;13.68;;;8.80;;
6135;SDS011;24008;42.664;23.372;2023-07-08T07:05:48;9.73;;;8.30;;
6135;SDS011;24008;42.664;23.372;2023-07-08T07:08:16;9.05;;;7.95;;
6135;SDS011;24008;42.664;23.372;2023-07-08T07:10:43;8.77;;;7.68;;
6135;SDS011;24008;42.664;23.372;2023-07-08T07:13:10;11.63;;;7.90;;
6135;SDS011;24008;42.664;23.372;2023-07-08T07:15:37;10.10;;;9.10;;
6135;SDS011;24008;42.664;23.372;2023-07-08T07:18:04;10.48;;;8.38;;
6135;SDS011;24008;42.664;23.372;2023-07-08T07:20:31;10.80;;;9.00;;
6135;SDS011;24008;42.664;23.372;2023-07-08T07:22:58;10.20;;;9.07;;
6135;SDS011;24008;42.664;23.372;2023-07-08T07:25:27;10.93;;;8.95;;
6135;SDS011;24008;42.664;23.372;2023-07-08T07:27:54;10.73;;;9.18;;
6135;SDS011;24008;42.664;23.372;2023-07-08T07:30:21;9.35;;;8.45;;
6135;SDS011;24008;42.664;23.372;2023-07-08T07:32:48;9.88;;;8.38;;
6135;SDS011;24008;42.664;23.372;2023-07-08T07:35:15;9.05;;;8.15;;
6135;SDS011;24008;42.664;23.372;2023-07-08T07:37:42;10.38;;;8.05;;
6135;SDS011;24008;42.664;23.372;2023-07-08T07:40:09;9.77;;;8.38;;
6135;SDS011;24008;42.664;23.372;2023-07-08T07:42:39;9.07;;;7.90;;
6135;SDS011;24008;42.664;23.372;2023-07-08T07:45:07;9.20;;;8.18;;
6135;SDS011;24008;42.664;23.372;2023-07-08T07:47:35;8.38;;;7.57;;
6135;SDS011;24008;42.664;23.372;2023-07-08T07:50:02;8.70;;;7.80;;
6135;SDS011;24008;42.664;23.372;2023-07-08T07:52:29;9.50;;;7.75;;
6135;SDS011;24008;42.664;23.372;2023-07-08T07:54:56;8.65;;;7.85;;
6135;SDS011;24008;42.664;23.372;2023-07-08T07:57:23;11.02;;;8.23;;
6135;SDS011;24008;42.664;23.372;2023-07-08T07:59:51;13.10;;;8.73;;
6135;SDS011;24008;42.664;23.372;2023-07-08T08:02:18;8.98;;;7.60;;
6135;SDS011;24008;42.664;23.372;2023-07-08T08:04:45;10.20;;;7.97;;
6135;SDS011;24008;42.664;23.372;2023-07-08T08:07:12;8.48;;;7.68;;
6135;SDS011;24008;42.664;23.372;2023-07-08T08:09:39;8.35;;;7.55;;
6135;SDS011;24008;42.664;23.372;2023-07-08T08:12:07;9.45;;;8.45;;
6135;SDS011;24008;42.664;23.372;2023-07-08T08:14:35;8.23;;;7.45;;
6135;SDS011;24008;42.664;23.372;2023-07-08T08:17:04;8.07;;;7.22;;
6135;SDS011;24008;42.664;23.372;2023-07-08T08:19:31;9.85;;;8.23;;
6135;SDS011;24008;42.664;23.372;2023-07-08T08:21:58;8.98;;;8.07;;
6135;SDS011;24008;42.664;23.372;2023-07-08T08:24:25;9.02;;;7.22;;
6135;SDS011;24008;42.664;23.372;2023-07-08T08:26:51;8.48;;;7.68;;
6135;SDS011;24008;42.664;23.372;2023-07-08T08:29:18;9.07;;;7.93;;
6135;SDS011;24008;42.664;23.372;2023-07-08T08:31:45;9.45;;;7.93;;
6135;SDS011;24008;42.664;23.372;2023-07-08T08:34:13;8.82;;;7.88;;
6135;SDS011;24008;42.664;23.372;2023-07-08T08:36:40;8.02;;;7.35;;
6135;SDS011;24008;42.664;23.372;2023-07-08T08:39:07;9.02;;;8.23;;
6135;SDS011;24008;42.664;23.372;2023-07-08T08:41:36;9.00;;;8.10;;
6135;SDS011;24008;42.664;23.372;2023-07-08T08:44:04;9.05;;;8.15;;
6135;SDS011;24008;42.664;23.372;2023-07-08T08:46:34;9.77;;;8.68;;
6135;SDS011;24008;42.664;23.372;2023-07-08T08:49:12;8.32;;;7.47;;
6135;SDS011;24008;42.664;23.372;2023-07-08T08:51:44;9.30;;;8.27;;
6135;SDS011;24008;42.664;23.372;2023-07-08T08:54:11;11.10;;;8.20;;
6135;SDS011;24008;42.664;23.372;2023-07-08T08:56:39;9.43;;;8.40;;
6135;SDS011;24008;42.664;23.372;2023-07-08T08:59:15;10.30;;;7.57;;
6135;SDS011;24008;42.664;23.372;2023-07-08T09:01:53;10.00;;;7.90;;
6135;SDS011;24008;42.664;23.372;2023-07-08T09:04:24;8.73;;;7.95;;
6135;SDS011;24008;42.664;23.372;2023-07-08T09:06:57;8.25;;;7.50;;
6135;SDS011;24008;42.664;23.372;2023-07-08T09:09:32;8.68;;;7.75;;
6135;SDS011;24008;42.664;23.372;2023-07-08T09:12:05;10.32;;;7.78;;
6135;SDS011;24008;42.664;23.372;2023-07-08T09:14:37;9.48;;;8.48;;
6135;SDS011;24008;42.664;23.372;2023-07-08T09:17:11;14.80;;;8.95;;
6135;SDS011;24008;42.664;23.372;2023-07-08T09:19:44;8.85;;;8.00;;
6135;SDS011;24008;42.664;23.372;2023-07-08T09:22:15;7.68;;;6.97;;
6135;SDS011;24008;42.664;23.372;2023-07-08T09:24:48;8.88;;;7.45;;
6135;SDS011;24008;42.664;23.372;2023-07-08T09:27:17;9.48;;;7.85;;
6135;SDS011;24008;42.664;23.372;2023-07-08T09:29:45;11.80;;;7.60;;
6135;SDS011;24008;42.664;23.372;2023-07-08T09:32:14;8.60;;;7.80;;
6135;SDS011;24008;42.664;23.372;2023-07-08T09:34:45;8.95;;;7.80;;
6135;SDS011;24008;42.664;23.372;2023-07-08T09:37:22;9.00;;;8.10;;
6135;SDS011;24008;42.664;23.372;2023-07-08T09:39:52;9.85;;;8.18;;
6135;SDS011;24008;42.664;23.372;2023-07-08T09:42:20;8.57;;;7.70;;
6135;SDS011;24008;42.664;23.372;2023-07-08T09:44:54;8.50;;;6.60;;
6135;SDS011;24008;42.664;23.372;2023-07-08T09:47:23;9.52;;;7.40;;
6135;SDS011;24008;42.664;23.372;2023-07-08T09:49:55;9.48;;;7.25;;
6135;SDS011;24008;42.664;23.372;2023-07-08T09:52:23;11.48;;;7.30;;
6135;SDS011;24008;42.664;23.372;2023-07-08T09:54:50;7.47;;;6.78;;
6135;SDS011;24008;42.664;23.372;2023-07-08T09:57:20;7.03;;;6.43;;
6135;SDS011;24008;42.664;23.372;2023-07-08T09:59:53;7.35;;;6.63;;
6135;SDS011;24008;42.664;23.372;2023-07-08T10:02:28;7.40;;;6.25;;
6135;SDS011;24008;42.664;23.372;2023-07-08T10:04:59;7.30;;;6.60;;
6135;SDS011;24008;42.664;23.372;2023-07-08T10:07:28;7.65;;;6.50;;
6135;SDS011;24008;42.664;23.372;2023-07-08T10:09:58;7.07;;;6.38;;
6135;SDS011;24008;42.664;23.372;2023-07-08T10:12:28;7.10;;;6.40;;
6135;SDS011;24008;42.664;23.372;2023-07-08T10:14:58;8.07;;;7.30;;
6135;SDS011;24008;42.664;23.372;2023-07-08T10:17:28;11.57;;;6.82;;
6135;SDS011;24008;42.664;23.372;2023-07-08T10:19:55;7.18;;;6.53;;
6135;SDS011;24008;42.664;23.372;2023-07-08T10:22:29;9.25;;;6.72;;
6135;SDS011;24008;42.664;23.372;2023-07-08T10:25:08;6.65;;;6.05;;
6135;SDS011;24008;42.664;23.372;2023-07-08T10:27:46;9.13;;;6.68;;
6135;SDS011;24008;42.664;23.372;2023-07-08T10:30:19;7.03;;;6.30;;
6135;SDS011;24008;42.664;23.372;2023-07-08T10:32:52;8.25;;;6.43;;
6135;SDS011;24008;42.664;23.372;2023-07-08T10:35:30;6.90;;;6.30;;
6135;SDS011;24008;42.664;23.372;2023-07-08T10:38:06;7.03;;;6.43;;
6135;SDS011;24008;42.664;23.372;2023-07-08T10:40:47;17.85;;;16.00;;
6135;SDS011;24008;42.664;23.372;2023-07-08T10:46:24;9.30;;;6.25;;
6135;SDS011;24008;42.664;23.372;2023-07-08T10:49:21;6.15;;;5.55;;
6135;SDS011;24008;42.664;23.372;2023-07-08T10:52:10;6.47;;;5.88;;
6135;SDS011;24008;42.664;23.372;2023-07-08T10:54:55;7.20;;;6.50;;
6135;SDS011;24008;42.664;23.372;2023-07-08T11:00:42;6.18;;;5.68;;
6135;SDS011;24008;42.664;23.372;2023-07-08T11:03:27;6.95;;;6.35;;
6135;SDS011;24008;42.664;23.372;2023-07-08T11:06:08;6.88;;;6.28;;
6135;SDS011;24008;42.664;23.372;2023-07-08T11:08:39;6.68;;;5.97;;
6135;SDS011;24008;42.664;23.372;2023-07-08T11:11:15;6.75;;;6.15;;
6135;SDS011;24008;42.664;23.372;2023-07-08T11:13:57;8.75;;;6.25;;
6135;SDS011;24008;42.664;23.372;2023-07-08T11:16:29;6.60;;;6.00;;
6135;SDS011;24008;42.664;23.372;2023-07-08T11:19:03;6.95;;;6.25;;
6135;SDS011;24008;42.664;23.372;2023-07-08T11:21:35;9.75;;;6.50;;
6135;SDS011;24008;42.664;23.372;2023-07-08T11:24:08;7.03;;;6.20;;
6135;SDS011;24008;42.664;23.372;2023-07-08T11:26:45;7.88;;;6.90;;
6135;SDS011;24008;42.664;23.372;2023-07-08T11:29:16;7.32;;;6.47;;
6135;SDS011;24008;42.664;23.372;2023-07-08T11:31:46;6.88;;;6.28;;
6135;SDS011;24008;42.664;23.372;2023-07-08T11:34:16;8.65;;;6.72;;
6135;SDS011;24008;42.664;23.372;2023-07-08T11:36:44;7.20;;;6.40;;
6135;SDS011;24008;42.664;23.372;2023-07-08T11:39:25;7.40;;;6.70;;
6135;SDS011;24008;42.664;23.372;2023-07-08T11:42:04;14.95;;;11.40;;
6135;SDS011;24008;42.664;23.372;2023-07-08T11:44:40;10.35;;;9.13;;
6135;SDS011;24008;42.664;23.372;2023-07-08T11:47:12;7.35;;;6.65;;
6135;SDS011;24008;42.664;23.372;2023-07-08T11:49:45;6.45;;;5.85;;
6135;SDS011;24008;42.664;23.372;2023-07-08T11:52:14;8.52;;;7.72;;
6135;SDS011;24008;42.664;23.372;2023-07-08T11:54:45;9.35;;;6.25;;
6135;SDS011;24008;42.664;23.372;2023-07-08T11:57:17;6.50;;;5.93;;
6135;SDS011;24008;42.664;23.372;2023-07-08T11:59:52;8.15;;;7.22;;
6135;SDS011;24008;42.664;23.372;2023-07-08T12:02:47;10.75;;;8.32;;
6135;SDS011;24008;42.664;23.372;2023-07-08T12:05:16;6.55;;;5.93;;
6135;SDS011;24008;42.664;23.372;2023-07-08T12:07:44;13.35;;;6.18;;
6135;SDS011;24008;42.664;23.372;2023-07-08T12:10:15;9.38;;;7.90;;
6135;SDS011;24008;42.664;23.372;2023-07-08T12:12:46;7.28;;;6.50;;
6135;SDS011;24008;42.664;23.372;2023-07-08T12:15:15;7.28;;;5.85;;
6135;SDS011;24008;42.664;23.372;2023-07-08T12:17:45;6.10;;;5.50;;
6135;SDS011;24008;42.664;23.372;2023-07-08T12:20:16;8.50;;;6.10;;
6135;SDS011;24008;42.664;23.372;2023-07-08T12:22:46;6.13;;;5.53;;
6135;SDS011;24008;42.664;23.372;2023-07-08T12:25:14;6.15;;;5.20;;
6135;SDS011;24008;42.664;23.372;2023-07-08T12:27:44;6.05;;;5.35;;
6135;SDS011;24008;42.664;23.372;2023-07-08T12:30:12;6.00;;;5.40;;
6135;SDS011;24008;42.664;23.372;2023-07-08T12:32:40;6.60;;;5.90;;
6135;SDS011;24008;42.664;23.372;2023-07-08T12:35:09;7.07;;;5.50;;
6135;SDS011;24008;42.664;23.372;2023-07-08T12:37:52;5.32;;;4.82;;
6135;SDS011;24008;42.664;23.372;2023-07-08T12:40:22;9.80;;;7.18;;
6135;SDS011;24008;42.664;23.372;2023-07-08T12:42:51;6.32;;;5.68;;
6135;SDS011;24008;42.664;23.372;2023-07-08T12:45:18;5.80;;;5.20;;
6135;SDS011;24008;42.664;23.372;2023-07-08T12:47:47;4.88;;;4.47;;
6135;SDS011;24008;42.664;23.372;2023-07-08T12:50:14;5.35;;;4.82;;
6135;SDS011;24008;42.664;23.372;2023-07-08T12:52:43;7.60;;;6.40;;
6135;SDS011;24008;42.664;23.372;2023-07-08T12:55:11;7.68;;;4.93;;
6135;SDS011;24008;42.664;23.372;2023-07-08T12:57:39;6.45;;;4.93;;
6135;SDS011;24008;42.664;23.372;2023-07-08T13:00:12;5.78;;;4.38;;
6135;SDS011;24008;42.664;23.372;2023-07-08T13:02:43;5.82;;;5.32;;
6135;SDS011;24008;42.664;23.372;2023-07-08T13:05:12;6.97;;;5.40;;
6135;SDS011;24008;42.664;23.372;2023-07-08T13:07:41;6.70;;;6.03;;
6135;SDS011;24008;42.664;23.372;2023-07-08T13:10:16;7.63;;;5.88;;
6135;SDS011;24008;42.664;23.372;2023-07-08T13:12:46;5.45;;;4.68;;
6135;SDS011;24008;42.664;23.372;2023-07-08T13:15:19;6.07;;;5.25;;
6135;SDS011;24008;42.664;23.372;2023-07-08T13:17:49;7.22;;;4.93;;
6135;SDS011;24008;42.664;23.372;2023-07-08T13:20:16;6.47;;;4.53;;
6135;SDS011;24008;42.664;23.372;2023-07-08T13:22:46;7.45;;;5.68;;
6135;SDS011;24008;42.664;23.372;2023-07-08T13:25:17;4.45;;;4.05;;
6135;SDS011;24008;42.664;23.372;2023-07-08T13:27:54;6.53;;;4.32;;
6135;SDS011;24008;42.664;23.372;2023-07-08T13:30:24;5.28;;;4.43;;
6135;SDS011;24008;42.664;23.372;2023-07-08T13:32:52;6.05;;;4.20;;
6135;SDS011;24008;42.664;23.372;2023-07-08T13:35:27;5.03;;;4.53;;
6135;SDS011;24008;42.664;23.372;2023-07-08T13:38:00;4.82;;;4.30;;
6135;SDS011;24008;42.664;23.372;2023-07-08T13:40:27;4.18;;;3.78;;
6135;SDS011;24008;42.664;23.372;2023-07-08T13:42:55;5.32;;;4.30;;
6135;SDS011;24008;42.664;23.372;2023-07-08T13:45:24;5.07;;;4.38;;
6135;SDS011;24008;42.664;23.372;2023-07-08T13:48:01;5.95;;;4.30;;
6135;SDS011;24008;42.664;23.372;2023-07-08T13:50:39;5.07;;;4.40;;
6135;SDS011;24008;42.664;23.372;2023-07-08T13:53:15;5.22;;;4.43;;
6135;SDS011;24008;42.664;23.372;2023-07-08T13:55:46;7.68;;;5.40;;
6135;SDS011;24008;42.664;23.372;2023-07-08T13:58:14;6.57;;;4.57;;
6135;SDS011;24008;42.664;23.372;2023-07-08T14:00:44;6.53;;;4.38;;
6135;SDS011;24008;42.664;23.372;2023-07-08T14:03:11;5.63;;;4.70;;
6135;SDS011;24008;42.664;23.372;2023-07-08T14:05:43;7.00;;;3.95;;
6135;SDS011;24008;42.664;23.372;2023-07-08T14:08:12;6.00;;;4.43;;
6135;SDS011;24008;42.664;23.372;2023-07-08T14:10:40;7.03;;;4.35;;
6135;SDS011;24008;42.664;23.372;2023-07-08T14:13:08;6.32;;;4.90;;
6135;SDS011;24008;42.664;23.372;2023-07-08T14:15:36;6.90;;;4.78;;
6135;SDS011;24008;42.664;23.372;2023-07-08T14:18:05;5.93;;;4.05;;
6135;SDS011;24008;42.664;23.372;2023-07-08T14:20:35;4.80;;;4.30;;
6135;SDS011;24008;42.664;23.372;2023-07-08T14:23:01;6.43;;;3.90;;
6135;SDS011;24008;42.664;23.372;2023-07-08T14:25:28;5.07;;;4.40;;
6135;SDS011;24008;42.664;23.372;2023-07-08T14:27:55;5.47;;;4.35;;
6135;SDS011;24008;42.664;23.372;2023-07-08T14:30:22;5.13;;;4.60;;
6135;SDS011;24008;42.664;23.372;2023-07-08T14:32:48;7.22;;;4.38;;
6135;SDS011;24008;42.664;23.372;2023-07-08T14:35:17;6.75;;;4.18;;
6135;SDS011;24008;42.664;23.372;2023-07-08T14:37:50;4.97;;;4.32;;
6135;SDS011;24008;42.664;23.372;2023-07-08T14:40:20;5.90;;;4.45;;
6135;SDS011;24008;42.664;23.372;2023-07-08T14:42:51;5.03;;;4.22;;
6135;SDS011;24008;42.664;23.372;2023-07-08T14:45:25;6.03;;;4.07;;
6135;SDS011;24008;42.664;23.372;2023-07-08T14:47:52;5.05;;;4.55;;
6135;SDS011;24008;42.664;23.372;2023-07-08T14:50:21;5.50;;;3.92;;
6135;SDS011;24008;42.664;23.372;2023-07-08T14:52:47;6.25;;;4.55;;
6135;SDS011;24008;42.664;23.372;2023-07-08T14:55:14;5.75;;;4.10;;